createdAt,value
2018-11-22T00:03:35.986Z,1019.8
2018-11-22T00:08:36.130Z,1019.9
2018-11-22T00:13:36.003Z,1019.8
2018-11-22T00:18:36.009Z,1019.9
2018-11-22T00:23:36.032Z,1019.8
2018-11-22T00:28:36.019Z,1019.9
2018-11-22T00:33:36.006Z,1019.9
2018-11-22T00:38:36.023Z,1019.9
2018-11-22T00:43:36.037Z,1020
2018-11-22T00:48:36.032Z,1019.9
2018-11-22T00:53:36.046Z,1020
2018-11-22T00:58:36.018Z,1020
2018-11-22T01:03:36.165Z,1020.1
2018-11-22T01:08:36.037Z,1020
2018-11-22T01:13:36.061Z,1020
2018-11-22T01:18:36.028Z,1020.1
2018-11-22T01:23:36.048Z,1020.1
2018-11-22T01:28:36.049Z,1020.1
2018-11-22T01:33:36.206Z,1020.1
2018-11-22T01:38:36.029Z,1020
2018-11-22T01:43:36.271Z,1020.1
2018-11-22T01:48:36.046Z,1020.1
2018-11-22T01:53:36.031Z,1020.1
2018-11-22T01:58:36.086Z,1020.1
2018-11-22T02:03:36.296Z,1020.2
2018-11-22T02:08:36.255Z,1020.2
2018-11-22T02:13:36.090Z,1020.3
2018-11-22T02:18:36.069Z,1020.2
2018-11-22T02:23:36.083Z,1020.3
2018-11-22T02:28:36.088Z,1020.3
2018-11-22T02:33:36.313Z,1020.3
2018-11-22T02:38:36.219Z,1020.3
2018-11-22T02:43:36.064Z,1020.3
2018-11-22T02:48:36.097Z,1020.4
2018-11-22T02:53:36.073Z,1020.4
2018-11-22T02:58:36.087Z,1020.5
2018-11-22T03:03:36.117Z,1020.5
2018-11-22T03:08:36.226Z,1020.5
2018-11-22T03:13:36.106Z,1020.6
2018-11-22T03:18:36.105Z,1020.6
2018-11-22T03:23:36.134Z,1020.7
2018-11-22T03:28:36.120Z,1020.8
2018-11-22T03:33:36.104Z,1020.7
2018-11-22T03:38:36.101Z,1020.6
2018-11-22T03:43:36.090Z,1020.8
2018-11-22T03:48:36.139Z,1020.8
2018-11-22T03:53:36.232Z,1020.8
2018-11-22T03:58:36.135Z,1020.8
2018-11-22T04:03:36.119Z,1020.8
2018-11-22T04:08:36.136Z,1020.9
2018-11-22T04:13:36.112Z,1021
2018-11-22T04:18:36.123Z,1021
2018-11-22T04:23:36.121Z,1021
2018-11-22T04:28:36.131Z,1021
2018-11-22T04:33:36.295Z,1021
2018-11-22T04:38:36.164Z,1021
2018-11-22T04:43:36.106Z,1021.1
2018-11-22T04:48:36.164Z,1021.1
2018-11-22T04:53:36.189Z,1021.1
2018-11-22T04:58:36.259Z,1021.1
2018-11-22T05:03:36.291Z,1021.1
2018-11-22T05:08:36.148Z,1021.2
2018-11-22T05:13:36.168Z,1021.2
2018-11-22T05:18:36.188Z,1021.2
2018-11-22T05:23:36.158Z,1021.3
2018-11-22T05:28:36.185Z,1021.3
2018-11-22T05:33:36.165Z,1021.4
2018-11-22T05:38:36.181Z,1021.5
2018-11-22T05:43:36.174Z,1021.4
2018-11-22T05:48:36.203Z,1021.4
2018-11-22T05:53:36.177Z,1021.5
2018-11-22T05:58:36.370Z,1021.6
2018-11-22T06:03:36.161Z,1021.6
2018-11-22T06:08:36.333Z,1021.7
2018-11-22T06:13:36.264Z,1021.6
2018-11-22T06:18:36.191Z,1021.6
2018-11-22T06:23:36.181Z,1021.7
2018-11-22T06:28:36.176Z,1021.7
2018-11-22T06:33:36.201Z,1021.7
2018-11-22T06:38:36.458Z,1021.7
2018-11-22T06:43:36.217Z,1021.7
2018-11-22T06:48:36.225Z,1021.8
2018-11-22T06:53:36.443Z,1021.8
2018-11-22T06:58:36.205Z,1021.8
2018-11-22T07:03:36.400Z,1021.9
2018-11-22T07:08:36.328Z,1021.9
2018-11-22T07:13:36.231Z,1021.9
2018-11-22T07:18:36.417Z,1021.9
2018-11-22T07:23:36.213Z,1021.9
2018-11-22T07:28:36.507Z,1021.9
2018-11-22T07:33:38.745Z,1021.8
2018-11-22T07:38:36.229Z,1021.9
2018-11-22T07:43:36.208Z,1021.9
2018-11-22T07:48:36.236Z,1021.9
2018-11-22T07:53:36.219Z,1021.9
2018-11-22T07:58:36.231Z,1021.9
2018-11-22T08:03:36.248Z,1022
2018-11-22T08:08:36.448Z,1021.9
2018-11-22T08:13:36.251Z,1022
2018-11-22T08:18:36.272Z,1022
2018-11-22T08:23:36.217Z,1022.1
2018-11-22T08:28:36.256Z,1022.1
2018-11-22T08:33:36.248Z,1022.1
2018-11-22T08:38:36.273Z,1022.1
2018-11-22T08:43:36.250Z,1022.1
2018-11-22T08:48:36.279Z,1022.1
2018-11-22T08:53:37.544Z,1022.1
2018-11-22T08:58:36.486Z,1022.1
2018-11-22T09:03:36.352Z,1022.1
2018-11-22T09:08:36.544Z,1022.2
2018-11-22T09:13:36.497Z,1022.1
2018-11-22T09:18:36.466Z,1022.2
2018-11-22T09:23:38.971Z,1022.2
2018-11-22T09:28:36.283Z,1022.2
2018-11-22T09:33:36.306Z,1022.1
2018-11-22T09:38:36.247Z,1022.1
2018-11-22T09:43:36.291Z,1022.1
2018-11-22T09:48:36.435Z,1022.2
2018-11-22T09:53:36.522Z,1022.1
2018-11-22T09:58:36.322Z,1022.1
2018-11-22T10:03:36.290Z,1022.1
2018-11-22T10:08:36.990Z,1022.1
2018-11-22T10:13:36.321Z,1022
2018-11-22T10:18:36.748Z,1022
2018-11-22T10:23:36.377Z,1021.9
2018-11-22T10:28:36.306Z,1021.9
2018-11-22T10:33:36.362Z,1021.8
2018-11-22T10:38:36.438Z,1021.8
2018-11-22T10:43:36.470Z,1021.8
2018-11-22T10:48:36.337Z,1021.8
2018-11-22T10:53:36.370Z,1021.8
2018-11-22T10:58:36.327Z,1021.8
2018-11-22T11:03:36.315Z,1021.8
2018-11-22T11:08:36.341Z,1021.8
2018-11-22T11:13:36.588Z,1021.8
2018-11-22T11:18:36.658Z,1021.9
2018-11-22T11:23:36.312Z,1021.8
2018-11-22T11:28:36.364Z,1021.9
2018-11-22T11:33:36.282Z,1021.8
2018-11-22T11:38:36.526Z,1021.8
2018-11-22T11:43:36.573Z,1021.7
2018-11-22T11:48:36.394Z,1021.7
2018-11-22T11:53:42.039Z,1021.7
2018-11-22T11:58:36.345Z,1021.6
2018-11-22T12:03:36.377Z,1021.6
2018-11-22T12:08:36.364Z,1021.6
2018-11-22T12:13:36.378Z,1021.6
2018-11-22T12:18:37.616Z,1021.6
2018-11-22T12:23:36.376Z,1021.5
2018-11-22T12:28:37.590Z,1021.5
2018-11-22T12:33:36.607Z,1021.5
2018-11-22T12:38:36.512Z,1021.5
2018-11-22T12:43:36.387Z,1021.4
2018-11-22T12:48:36.384Z,1021.5
2018-11-22T12:53:36.418Z,1021.5
2018-11-22T12:58:36.559Z,1021.5
2018-11-22T13:03:36.430Z,1021.5
2018-11-22T13:08:36.392Z,1021.6
2018-11-22T13:13:36.379Z,1021.5
2018-11-22T13:18:36.505Z,1021.6
2018-11-22T13:23:36.535Z,1021.7
2018-11-22T13:28:36.412Z,1021.6
2018-11-22T13:33:36.621Z,1021.6
2018-11-22T13:38:36.509Z,1021.7
2018-11-22T13:43:36.544Z,1021.7
2018-11-22T13:48:36.579Z,1021.7
2018-11-22T13:53:36.427Z,1021.7
2018-11-22T13:58:36.451Z,1021.8
2018-11-22T14:03:36.573Z,1021.7
2018-11-22T14:08:36.664Z,1021.7
2018-11-22T14:13:36.430Z,1021.9
2018-11-22T14:18:36.394Z,1021.9
2018-11-22T14:23:36.641Z,1021.9
2018-11-22T14:28:36.432Z,1021.9
2018-11-22T14:33:36.405Z,1021.9
2018-11-22T14:38:36.444Z,1022
2018-11-22T14:43:36.567Z,1022
2018-11-22T14:48:36.570Z,1022.1
2018-11-22T14:53:36.432Z,1022
2018-11-22T14:58:36.697Z,1022.1
2018-11-22T15:03:36.443Z,1022.1
2018-11-22T15:08:36.446Z,1022
2018-11-22T15:13:36.445Z,1022
2018-11-22T15:18:36.439Z,1022.1
2018-11-22T15:23:36.610Z,1022.1
2018-11-22T15:28:36.669Z,1022.1
2018-11-22T15:33:36.588Z,1022.2
2018-11-22T15:38:36.465Z,1022.2
2018-11-22T15:43:36.461Z,1022.4
2018-11-22T15:48:36.704Z,1022.4
2018-11-22T15:53:36.495Z,1022.5
2018-11-22T15:58:36.484Z,1022.6
2018-11-22T16:03:36.425Z,1022.6
2018-11-22T16:08:36.484Z,1022.7
2018-11-22T16:13:36.510Z,1022.7
2018-11-22T16:18:36.491Z,1022.8
2018-11-22T16:23:36.522Z,1022.8
2018-11-22T16:28:36.497Z,1022.8
2018-11-22T16:33:36.539Z,1022.8
2018-11-22T16:38:36.481Z,1022.7
2018-11-22T16:43:36.536Z,1022.8
2018-11-22T16:48:36.565Z,1022.7
2018-11-22T16:53:36.506Z,1022.8
2018-11-22T16:58:41.000Z,1022.8
2018-11-22T17:03:40.970Z,1022.7
2018-11-22T17:08:41.048Z,1022.7
2018-11-22T17:13:41.010Z,1022.6
2018-11-22T17:18:41.020Z,1022.7
2018-11-22T17:23:41.054Z,1022.6
2018-11-22T17:28:41.086Z,1022.6
2018-11-22T17:33:41.043Z,1022.7
2018-11-22T17:38:41.045Z,1022.6
2018-11-22T17:43:41.032Z,1022.6
2018-11-22T17:48:41.056Z,1022.6
2018-11-22T17:53:41.035Z,1022.7
2018-11-22T17:58:41.382Z,1022.6
2018-11-22T18:03:41.045Z,1022.7
2018-11-22T18:08:41.060Z,1022.6
2018-11-22T18:13:41.038Z,1022.8
2018-11-22T18:18:41.135Z,1022.8
2018-11-22T18:23:41.040Z,1022.8
2018-11-22T18:28:41.083Z,1022.7
2018-11-22T18:33:41.108Z,1022.8
2018-11-22T18:38:41.026Z,1022.8
2018-11-22T18:43:41.055Z,1022.8
2018-11-22T18:48:41.342Z,1022.7
2018-11-22T18:53:41.093Z,1022.8
2018-11-22T18:58:41.064Z,1022.8
2018-11-22T19:03:41.075Z,1022.8
2018-11-22T19:08:41.080Z,1022.7
2018-11-22T19:13:41.072Z,1022.7
2018-11-22T19:18:41.070Z,1022.7
2018-11-22T19:23:41.085Z,1022.7
2018-11-22T19:28:41.075Z,1022.8
2018-11-22T19:33:41.077Z,1022.8
2018-11-22T19:38:41.087Z,1022.9
2018-11-22T19:43:41.254Z,1022.9
2018-11-22T19:48:43.508Z,1023
2018-11-22T19:53:42.408Z,1022.9
2018-11-22T19:58:41.091Z,1022.9
2018-11-22T20:03:43.690Z,1023
2018-11-22T20:08:41.115Z,1022.9
2018-11-22T20:13:41.115Z,1023
2018-11-22T20:18:41.130Z,1023.1
2018-11-22T20:23:41.174Z,1023.2
2018-11-22T20:28:41.134Z,1023.1
2018-11-22T20:33:41.131Z,1023.2
2018-11-22T20:38:41.168Z,1023.2
2018-11-22T20:43:41.648Z,1023.3
2018-11-22T20:48:41.111Z,1023.3
2018-11-22T20:53:41.107Z,1023.2
2018-11-22T20:58:41.125Z,1023.3
2018-11-22T21:03:41.166Z,1023.3
2018-11-22T21:08:49.044Z,1023.3
2018-11-22T21:13:41.116Z,1023.4
2018-11-22T21:18:41.130Z,1023.5
2018-11-22T21:23:41.166Z,1023.5
2018-11-22T21:28:41.231Z,1023.5
2018-11-22T21:33:41.125Z,1023.4
2018-11-22T21:38:41.149Z,1023.4
2018-11-22T21:43:41.128Z,1023.4
2018-11-22T21:48:41.120Z,1023.5
2018-11-22T21:53:41.113Z,1023.3
2018-11-22T21:58:41.133Z,1023.5
2018-11-22T22:03:41.128Z,1023.5
2018-11-22T22:08:41.143Z,1023.5
2018-11-22T22:13:41.136Z,1023.5
2018-11-22T22:18:41.134Z,1023.4
2018-11-22T22:23:41.141Z,1023.3
2018-11-22T22:28:41.168Z,1023.3
2018-11-22T22:33:41.459Z,1023.5
2018-11-22T22:38:41.173Z,1023.4
2018-11-22T22:43:41.242Z,1023.3
2018-11-22T22:48:41.320Z,1023.2
2018-11-22T22:53:41.177Z,1023.2
2018-11-22T22:58:41.153Z,1023.3
2018-11-22T23:03:41.285Z,1023.3
2018-11-22T23:08:41.160Z,1023.5
2018-11-22T23:13:41.161Z,1023.4
2018-11-22T23:18:41.416Z,1023.3
2018-11-22T23:23:41.345Z,1023.3
2018-11-22T23:28:41.127Z,1023.4
2018-11-22T23:33:41.297Z,1023.5
2018-11-22T23:38:41.336Z,1023.5
2018-11-22T23:43:41.192Z,1023.5
2018-11-22T23:48:41.162Z,1023.4
2018-11-22T23:53:41.332Z,1023.5
2018-11-22T23:58:41.356Z,1023.4
